createdAt,value
2022-08-02T12:01:45.675Z,96.15
2022-08-02T12:02:39.931Z,89.29
2022-08-02T12:03:39.856Z,89.49
2022-08-02T12:04:39.959Z,93.66
2022-08-02T12:06:04.694Z,93.16
2022-08-02T12:06:39.832Z,92.26
2022-08-02T12:07:45.851Z,91.97
2022-08-02T12:08:39.769Z,92.70
2022-08-02T12:09:41.363Z,90.38
2022-08-02T12:10:39.849Z,93.09
2022-08-02T12:11:39.816Z,92.33
2022-08-02T12:12:39.923Z,89.25
2022-08-02T12:13:39.895Z,91.36
2022-08-02T12:14:39.778Z,90.89
2022-08-02T12:15:39.894Z,88.31
2022-08-02T12:16:39.821Z,89.52
2022-08-02T12:17:39.853Z,87.36
2022-08-02T12:18:39.896Z,88.12
2022-08-02T12:19:40.018Z,89.12
2022-08-02T12:20:39.839Z,89.60
2022-08-02T12:21:40.374Z,89.22
2022-08-02T12:22:41.984Z,90.73
2022-08-02T12:23:39.843Z,95.80
2022-08-02T12:24:39.841Z,90.00
2022-08-02T12:25:39.876Z,95.13
2022-08-02T12:26:40.022Z,95.36
2022-08-02T12:27:40.039Z,94.85
2022-08-02T12:28:40.041Z,92.76
2022-08-02T12:29:58.686Z,91.27
2022-08-02T12:30:40.086Z,90.32
2022-08-02T12:31:56.812Z,91.29
2022-08-02T12:32:40.112Z,89.67
2022-08-02T12:33:40.093Z,89.07
2022-08-02T12:34:40.795Z,88.62
2022-08-02T12:35:40.097Z,91.57
2022-08-02T12:36:40.126Z,90.77
2022-08-02T12:37:40.216Z,90.69
2022-08-02T12:38:40.832Z,91.55
2022-08-02T12:39:40.217Z,91.37
2022-08-02T12:40:40.227Z,92.40
2022-08-02T12:41:40.253Z,93.45
2022-08-02T12:42:40.610Z,93.93
2022-08-02T12:43:40.265Z,94.09
2022-08-02T12:44:40.248Z,91.66
2022-08-02T12:45:41.881Z,94.40
2022-08-02T12:46:42.122Z,92.20
2022-08-02T12:47:40.304Z,95.13
2022-08-02T12:48:52.122Z,89.32
2022-08-02T12:49:40.330Z,93.29
2022-08-02T12:50:40.236Z,89.04
2022-08-02T12:51:50.896Z,89.98
2022-08-02T12:52:40.302Z,92.47
2022-08-02T12:53:40.249Z,93.77
2022-08-02T12:54:40.331Z,91.53
2022-08-02T12:55:59.970Z,89.23
2022-08-02T12:56:40.261Z,92.87
2022-08-02T12:57:40.983Z,91.67
2022-08-02T12:58:40.282Z,91.72
2022-08-02T12:59:40.278Z,89.50
2022-08-02T13:00:40.278Z,91.57
2022-08-02T13:01:40.352Z,91.07
2022-08-02T13:02:40.708Z,91.09
2022-08-02T13:04:12.213Z,91.37
2022-08-02T13:04:40.354Z,93.44
2022-08-02T13:05:57.075Z,92.18
2022-08-02T13:06:43.909Z,94.94
2022-08-02T13:07:40.373Z,93.59
2022-08-02T13:08:40.306Z,94.57
2022-08-02T13:09:40.338Z,93.69
2022-08-02T13:10:40.515Z,91.50
2022-08-02T13:11:43.217Z,91.17
2022-08-02T13:12:40.457Z,89.90
2022-08-02T13:13:40.382Z,94.04
2022-08-02T13:14:42.167Z,92.01
2022-08-02T13:15:49.012Z,94.58
2022-08-02T13:16:40.345Z,94.39
2022-08-02T13:17:40.372Z,94.88
2022-08-02T13:18:40.305Z,96.86
2022-08-02T13:19:40.313Z,91.39
2022-08-02T13:20:44.721Z,94.49
2022-08-02T13:22:01.497Z,95.21
2022-08-02T13:22:51.386Z,95.48
2022-08-02T13:23:53.887Z,95.80
2022-08-02T13:24:55.945Z,93.67
2022-08-02T13:25:40.406Z,92.20
2022-08-02T13:26:40.407Z,92.86
2022-08-02T13:27:40.716Z,95.23
2022-08-02T13:28:40.921Z,95.48
2022-08-02T13:29:40.381Z,99.46
2022-08-02T13:30:40.408Z,98.92
2022-08-02T13:31:40.412Z,98.87
2022-08-02T13:32:40.771Z,96.16
2022-08-02T13:33:40.448Z,97.65
2022-08-02T13:34:40.477Z,97.14
2022-08-02T13:35:40.556Z,98.07
2022-08-02T13:36:40.568Z,97.54
2022-08-02T13:37:40.806Z,97.39
2022-08-02T13:38:40.698Z,96.26
2022-08-02T13:39:40.573Z,94.84
2022-08-02T13:41:03.152Z,96.30
2022-08-02T13:41:40.764Z,96.59
2022-08-02T13:42:40.595Z,95.71
2022-08-02T13:43:52.184Z,97.39
2022-08-02T13:44:40.646Z,96.92
2022-08-02T13:45:40.614Z,99.23
2022-08-02T13:46:45.270Z,99.27
2022-08-02T13:47:57.372Z,99.69
2022-08-02T13:48:40.656Z,98.50
2022-08-02T13:49:49.732Z,94.33
2022-08-02T13:50:40.819Z,99.04
2022-08-02T13:51:40.677Z,95.50
2022-08-02T13:52:40.754Z,96.39
2022-08-02T13:53:40.626Z,97.59
2022-08-02T13:54:40.727Z,98.57
2022-08-02T13:55:43.299Z,97.55
2022-08-02T13:56:40.682Z,96.12
2022-08-02T13:57:41.447Z,95.53
2022-08-02T13:58:40.682Z,100.00
2022-08-02T13:59:57.739Z,98.39
2022-08-02T14:00:40.676Z,96.74
2022-08-02T14:01:40.683Z,95.94
2022-08-02T14:02:40.988Z,98.62
2022-08-02T14:04:08.024Z,93.78
2022-08-02T14:04:40.703Z,94.73
2022-08-02T14:05:48.338Z,99.66
2022-08-02T14:06:40.652Z,96.00
2022-08-02T14:07:40.956Z,100.00
2022-08-02T14:08:40.754Z,98.32
2022-08-02T14:09:40.670Z,100.00
2022-08-02T14:10:40.687Z,96.27
2022-08-02T14:11:40.746Z,100.00
2022-08-02T14:12:41.207Z,98.29
2022-08-02T14:13:40.697Z,93.09
2022-08-02T14:14:40.690Z,94.38
2022-08-02T14:15:40.688Z,93.05
2022-08-02T14:16:40.723Z,93.28
2022-08-02T14:17:40.727Z,94.47
2022-08-02T14:18:40.710Z,91.93
2022-08-02T14:19:40.777Z,92.30
2022-08-02T14:20:40.783Z,93.34
2022-08-02T14:21:46.839Z,90.63
2022-08-02T14:22:40.879Z,91.82
2022-08-02T14:23:49.406Z,91.33
2022-08-02T14:24:41.038Z,93.10
2022-08-02T14:25:40.812Z,94.58
2022-08-02T14:26:40.782Z,92.07
2022-08-02T14:27:40.874Z,93.44
2022-08-02T14:28:40.798Z,91.80
2022-08-02T14:29:40.812Z,95.86
2022-08-02T14:30:40.856Z,92.75
2022-08-02T14:31:44.276Z,90.30
2022-08-02T14:32:41.035Z,88.72
2022-08-02T14:33:40.814Z,92.59
2022-08-02T14:34:40.828Z,94.91
2022-08-02T14:35:40.860Z,93.74
2022-08-02T14:36:40.817Z,90.34
2022-08-02T14:37:40.852Z,90.93
2022-08-02T14:38:40.903Z,92.40
2022-08-02T14:39:43.206Z,91.74
2022-08-02T14:40:40.822Z,94.42
2022-08-02T14:41:58.226Z,91.17
2022-08-02T14:42:41.179Z,95.70
2022-08-02T14:43:40.841Z,91.63
2022-08-02T14:44:40.842Z,88.31
2022-08-02T14:45:41.526Z,89.12
2022-08-02T14:46:40.836Z,89.95
2022-08-02T14:47:41.458Z,91.82
2022-08-02T14:48:40.849Z,89.53
2022-08-02T14:49:42.338Z,91.65
2022-08-02T14:50:40.892Z,89.86
2022-08-02T14:51:40.855Z,91.62
2022-08-02T14:52:41.287Z,91.62
2022-08-02T14:53:49.114Z,92.81
2022-08-02T14:54:40.856Z,87.96
2022-08-02T14:55:40.871Z,89.39
2022-08-02T14:56:40.853Z,90.07
2022-08-02T14:57:40.888Z,88.88
2022-08-02T14:58:40.871Z,88.98
2022-08-02T14:59:42.581Z,86.84
2022-08-02T15:00:41.728Z,88.40
2022-08-02T15:01:41.031Z,89.29
2022-08-02T15:02:41.207Z,92.23
2022-08-02T15:03:43.641Z,88.46
2022-08-02T15:04:42.734Z,93.54
2022-08-02T15:05:40.912Z,89.67
2022-08-02T15:06:40.986Z,89.19
2022-08-02T15:07:44.203Z,89.03
2022-08-02T15:08:41.019Z,89.15
2022-08-02T15:09:41.162Z,90.41
2022-08-02T15:10:41.000Z,90.08
2022-08-02T15:11:48.149Z,92.93
2022-08-02T15:12:41.494Z,90.85
2022-08-02T15:13:42.569Z,92.60
2022-08-02T15:14:40.983Z,93.29
2022-08-02T15:15:43.641Z,89.97
2022-08-02T15:16:55.352Z,91.38
2022-08-02T15:17:41.024Z,96.00
2022-08-02T15:18:41.030Z,94.12
2022-08-02T15:19:59.158Z,92.55
2022-08-02T15:20:41.483Z,91.93
2022-08-02T15:21:52.329Z,92.23
2022-08-02T15:22:41.049Z,94.03
2022-08-02T15:23:41.077Z,90.25
2022-08-02T15:24:41.023Z,90.75
2022-08-02T15:25:41.588Z,89.50
2022-08-02T15:26:41.031Z,89.49
2022-08-02T15:27:41.039Z,88.74
2022-08-02T15:28:41.055Z,91.65
2022-08-02T15:29:41.054Z,94.42
2022-08-02T15:30:41.061Z,94.94
2022-08-02T15:31:41.879Z,92.51
2022-08-02T15:32:41.093Z,89.47
2022-08-02T15:33:41.046Z,88.51
2022-08-02T15:34:41.115Z,91.71
2022-08-02T15:35:41.054Z,93.88
2022-08-02T15:36:41.057Z,96.37
2022-08-02T15:37:41.678Z,94.15
2022-08-02T15:38:41.066Z,92.46
2022-08-02T15:39:41.259Z,93.03
2022-08-02T15:40:41.066Z,89.47
2022-08-02T15:41:41.077Z,90.87
2022-08-02T15:42:41.276Z,91.50
2022-08-02T15:43:41.073Z,93.84
2022-08-02T15:44:41.088Z,97.46
2022-08-02T15:45:41.109Z,95.00
2022-08-02T15:46:41.087Z,96.38
2022-08-02T15:47:41.111Z,93.72
2022-08-02T15:48:41.178Z,93.28
2022-08-02T15:49:41.744Z,93.97
2022-08-02T15:50:41.148Z,94.25
2022-08-02T15:51:41.090Z,93.16
2022-08-02T15:52:41.566Z,92.28
2022-08-02T15:53:41.097Z,92.99
2022-08-02T15:54:41.114Z,89.53
2022-08-02T15:55:52.764Z,94.44
2022-08-02T15:56:41.115Z,93.65
2022-08-02T15:57:41.126Z,91.98
2022-08-02T15:58:44.421Z,95.07
2022-08-02T15:59:41.175Z,94.15
2022-08-02T16:00:41.128Z,94.37
